Cusco/Alejandro Velasco Astete International Airport

Airport
ICAO code: 
SPZO
IATA Code: 
CUZ
Summary
ICAO Region: 
CARSAM
Territory: 
Location: 
Cusco, Cusco
Serving: 
Cusco
Elevation: 
10860 ft
Coordinates: 
Aerial View: 
13° 32' 8.999" S, 71° 56' 20" W
Metar
Observation
SPZO 021930Z 06006KT 360V120 9999 NSC 21/M13 Q1028 NOSIG RMK BIRD HAZARD RWY 10/28
Station
Cuzco
Date/Time
2022-07-02 19:30:00
Wind direction
60°
Wind speed
06 kts
Lowest cloud amount
n/a
Temperature
21°C
Dew point
-13°C
Humidity
9%
QNH
1028 hPa
Weather condition
n/a

International airport located in the city of Cusco, in southeastern Peru.

Climatology

Sub-tropical Highland climate (Köppen climate classification Cwb).

Runways

Designator Length Width Surface Rops
10/28 3397 45 ASP No/No
Airport map: 
Aerial View: 

SKYbrary Partners:

Safety knowledge contributed by: